Terminal Aerodrome Forecast
Issued by NWS

Home | Current Version | Previous Version | Text Only | Print | Product List | Glossary On
Versions: 1 2 3 4 5 6 7 8 9 10 11 12 13 14 15 16 17 18 19 20 21 22 23 24 25 26 27 28 29 30 31 32
000
FTUS44 KFWD 211400 AAA
TAFFTW
TAF AMD
KFTW 211409Z 2114/2212 17010KT 2SM BR OVC004
     FM211700 18012KT P6SM BKN015
     FM220300 15013KT P6SM VCSH BKN015
     FM221000 15015KT P6SM VCTS BKN015CB=

USA.gov is the U.S. government's official web portal to all federal, state and local government web resources and services.